Aberdeen Regional Airport Aberdeen US
ICAO: KABR
IATA: ABR
Category: Medium
Scheduled Services: Yes

Elevation: 1302 ft
TransAlt. 18000 ft.

Airport Communications:
ASOS:125.875
MINNEAPOLIS CNTR:120.6
CTAF:122.7
HURON RDO:122.4
UNICOM:122.95

KABR Zoom In..

If you have problems with the map follow the link
https://www.worldairports.se/pages/airport.php?
ICAO=KABR

Runways:

(A) RW 13 length 6901 ft width 100 ft
---- / hdg 128

(B) RW 17 length 5500 ft width 100 ft
---- / hdg 173

(C) RW 31 length 6901 ft width 100 ft
ILS 109.90 / hdg 308

(D) RW 35 length 5500 ft width 100 ft
---- / hdg 353

Location; KABR
Day. 23 / Time. 22.53 Zulu
* Altimeter: 30.14
* Temperature: -04° c. -24.8°f.
* Wind from: 360° Speed 14 kn.
Dewpoint: -06° c.
Visibility: 4 Statute Miles.
Clouds: Overcast 700 ft.
Conditions: Light Snow.Conditions: Mist.

KABR 232253Z AUTO 36014KT 4SM -SN BR OVC007 M04/M06 A3014 RMK AO2 SNB50 SLP226 P0000 T10391061


Wind From 360°
Speed 14 kn.

 
 
jpsmedia worldairports.se 2020   terms of use